Time;durP1;ratioP1;P1;durP2;ratioP2;P2;SDS_P1;SDS_P2;PMS_P1;PMS_P2;Temp;Humidity;BMP_temperature;BMP_pressure;BME280_temperature;BME280_humidity;BME280_pressure;Samples;Min_cycle;Max_cycle;Signal;HPM_P1;HPM_P2
2022/09/29 00:01:47;;;;;;;11.90;10.20;;;;;;;8.05;85.19;99863.41;4980686;28;20038;-46
2022/09/29 00:04:13;;;;;;;15.93;11.23;;;;;;;8.09;86.04;99865.75;4970876;28;20058;-47
2022/09/29 00:06:38;;;;;;;12.27;10.43;;;;;;;8.06;85.81;99862.44;4989029;28;20148;-49
2022/09/29 00:09:04;;;;;;;19.17;10.68;;;;;;;8.01;85.53;99859.28;5015270;28;20137;-47
2022/09/29 00:11:30;;;;;;;12.05;10.80;;;;;;;8.02;85.82;99863.59;4996210;28;20030;-47
2022/09/29 00:13:55;;;;;;;12.18;10.27;;;;;;;8.01;85.16;99864.56;4994564;28;20026;-47
2022/09/29 00:16:20;;;;;;;15.65;10.77;;;;;;;8.00;85.23;99862.84;5003692;28;20030;-46
2022/09/29 00:18:46;;;;;;;13.45;10.25;;;;;;;7.97;84.66;99861.25;4988934;28;20038;-47
2022/09/29 00:21:18;;;;;;;13.13;10.02;;;;;;;7.93;84.33;99863.28;4970805;28;20034;-46
2022/09/29 00:23:43;;;;;;;12.00;10.02;;;;;;;7.96;84.54;99865.72;4981200;28;20726;-47
2022/09/29 00:26:12;;;;;;;12.60;10.02;;;;;;;7.84;83.93;99847.19;4999861;28;20066;-49
2022/09/29 00:28:39;;;;;;;13.68;10.23;;;;;;;7.78;84.59;99859.03;4970046;28;20029;-47
2022/09/29 00:31:07;;;;;;;12.50;10.50;;;;;;;7.89;84.03;99866.25;4987411;28;20062;-47
2022/09/29 00:33:36;;;;;;;12.05;10.75;;;;;;;7.75;84.84;99864.53;4988241;28;20026;-48
2022/09/29 00:36:11;;;;;;;14.32;10.23;;;;;;;7.79;84.25;99858.06;4988116;28;20037;-47
2022/09/29 00:38:41;;;;;;;17.75;10.80;;;;;;;7.79;84.15;99852.75;4980645;28;20041;-48
2022/09/29 00:41:07;;;;;;;14.88;10.43;;;;;;;7.74;84.01;99860.19;4987461;28;20046;-46
2022/09/29 00:43:57;;;;;;;12.15;9.95;;;;;;;7.67;84.41;99850.94;4988142;28;20535;-47
2022/09/29 00:46:25;;;;;;;12.02;10.82;;;;;;;7.67;84.61;99862.38;4988286;28;20076;-48
2022/09/29 00:48:53;;;;;;;12.18;10.30;;;;;;;7.61;84.50;99861.94;4991011;28;20033;-47
2022/09/29 00:51:22;;;;;;;12.30;10.88;;;;;;;7.62;85.32;99859.22;4988458;28;20535;-47
2022/09/29 00:53:48;;;;;;;16.35;10.82;;;;;;;7.56;84.77;99864.03;4988064;28;20113;-47
2022/09/29 00:56:17;;;;;;;17.88;11.18;;;;;;;7.61;85.63;99860.16;4987699;28;20038;-46
2022/09/29 00:58:53;;;;;;;11.65;10.45;;;;;;;7.66;84.80;99860.69;4998908;28;20033;-48
2022/09/29 01:01:22;;;;;;;13.10;11.27;;;;;;;7.57;85.59;99858.66;4985947;28;20031;-47
2022/09/29 01:03:51;;;;;;;15.55;11.38;;;;;;;7.63;85.61;99849.47;4990664;28;20037;-46
2022/09/29 01:06:26;;;;;;;13.38;10.63;;;;;;;7.60;85.20;99852.31;4983865;28;20037;-49
2022/09/29 01:09:05;;;;;;;13.23;11.80;;;;;;;7.62;86.22;99853.09;4984641;28;20118;-46
2022/09/29 01:11:32;;;;;;;13.15;11.02;;;;;;;7.57;85.56;99853.38;4984634;28;20038;-49
2022/09/29 01:14:05;;;;;;;17.85;10.68;;;;;;;7.61;85.22;99852.22;4953784;28;20041;-47
2022/09/29 01:16:31;;;;;;;11.48;10.35;;;;;;;7.58;85.54;99843.63;4969166;28;20030;-47
2022/09/29 01:19:02;;;;;;;15.55;10.15;;;;;;;7.56;84.64;99851.69;4980311;28;20481;-48
2022/09/29 01:21:53;;;;;;;15.38;10.93;;;;;;;7.54;84.91;99852.72;4987852;28;20057;-47
2022/09/29 01:24:28;;;;;;;14.65;10.70;;;;;;;7.53;85.34;99853.66;4987061;28;20022;-47
2022/09/29 01:27:10;;;;;;;12.80;10.63;;;;;;;7.50;85.03;99857.38;4979075;28;20070;-47
2022/09/29 01:30:05;;;;;;;10.93;9.85;;;;;;;7.45;85.48;99857.69;4991074;28;20511;-49
2022/09/29 01:32:42;;;;;;;13.02;10.93;;;;;;;7.44;85.44;99857.75;4993885;28;20035;-46
2022/09/29 01:35:29;;;;;;;15.38;11.10;;;;;;;7.35;86.48;99859.22;4987030;28;20034;-47
2022/09/29 01:38:22;;;;;;;12.55;11.25;;;;;;;7.39;87.06;99846.66;4989507;28;20034;-47
2022/09/29 01:40:48;;;;;;;13.32;11.10;;;;;;;7.33;86.15;99858.50;4991117;28;20034;-47
2022/09/29 01:43:22;;;;;;;12.13;10.82;;;;;;;7.24;86.15;99859.94;4991984;28;20041;-47
2022/09/29 01:46:01;;;;;;;12.02;10.85;;;;;;;7.29;86.15;99856.97;4989977;28;20500;-46
2022/09/29 01:48:32;;;;;;;18.52;11.30;;;;;;;7.24;86.07;99857.28;4990636;28;20389;-47
2022/09/29 01:51:04;;;;;;;11.52;10.35;;;;;;;7.24;85.73;99852.00;4990681;28;20435;-47
2022/09/29 01:53:39;;;;;;;13.07;11.15;;;;;;;7.23;86.30;99855.59;4991706;28;20523;-47
2022/09/29 01:56:13;;;;;;;12.73;10.75;;;;;;;7.16;86.04;99859.59;4978142;28;20587;-47
2022/09/29 01:58:51;;;;;;;14.35;12.60;;;;;;;7.18;85.82;99859.50;4963662;28;20058;-48
2022/09/29 02:01:20;;;;;;;16.75;10.80;;;;;;;7.05;85.40;99862.06;4972140;28;20035;-47
2022/09/29 02:04:02;;;;;;;14.43;11.90;;;;;;;7.08;86.27;99859.22;4971479;28;20484;-48
2022/09/29 02:06:36;;;;;;;16.23;11.88;;;;;;;7.06;86.47;99858.50;4970061;28;20030;-46
2022/09/29 02:09:09;;;;;;;14.15;12.02;;;;;;;7.06;86.50;99853.22;4992227;28;20138;-46
2022/09/29 02:11:39;;;;;;;17.25;12.50;;;;;;;7.09;87.00;99858.28;4990570;28;20064;-47
2022/09/29 02:14:10;;;;;;;;;;;;;;;7.24;85.80;99859.09;4990166;28;20489;-49
2022/09/29 02:16:45;;;;;;;16.70;11.50;;;;;;;7.03;86.40;99854.25;4990665;28;19917;-46
2022/09/29 02:19:19;;;;;;;20.00;13.02;;;;;;;7.03;87.10;99863.97;4990675;28;20049;-48
2022/09/29 02:21:46;;;;;;;16.77;12.70;;;;;;;7.05;86.75;99859.41;4991228;28;20026;-47
2022/09/29 02:24:14;;;;;;;14.40;11.98;;;;;;;6.98;86.44;99856.34;5005412;28;20034;-48
2022/09/29 02:26:41;;;;;;;13.05;11.77;;;;;;;6.90;86.15;99855.13;4981166;28;20034;-47
2022/09/29 02:29:07;;;;;;;16.95;13.23;;;;;;;6.91;86.70;99860.34;4985212;28;20094;-47
2022/09/29 02:31:37;;;;;;;16.48;11.50;;;;;;;6.92;86.71;99862.00;4993569;28;20026;-47
2022/09/29 02:34:05;;;;;;;12.50;11.20;;;;;;;6.88;85.99;99859.66;4976955;28;20056;-47
2022/09/29 02:36:38;;;;;;;13.45;12.02;;;;;;;6.93;86.07;99857.56;4994851;28;20109;-47
2022/09/29 02:39:22;;;;;;;13.35;11.95;;;;;;;6.95;86.47;99864.47;4972815;28;20099;-47
2022/09/29 02:42:06;;;;;;;13.65;12.35;;;;;;;6.95;86.38;99858.34;4989939;28;20740;-47
2022/09/29 02:45:04;;;;;;;14.93;12.07;;;;;;;6.94;86.88;99861.91;4977826;28;20448;-47
2022/09/29 02:48:00;;;;;;;17.10;13.00;;;;;;;6.98;86.04;99863.41;4974992;28;20050;-47
2022/09/29 02:50:46;;;;;;;12.77;11.48;;;;;;;6.79;85.48;99861.97;4989421;28;20030;-48
2022/09/29 02:53:33;;;;;;;15.90;12.57;;;;;;;6.89;85.89;99864.84;4997627;28;20082;-47
2022/09/29 02:56:12;;;;;;;14.07;11.93;;;;;;;6.79;85.29;99847.88;4989139;28;20084;-48
2022/09/29 02:59:09;;;;;;;13.38;11.98;;;;;;;6.89;85.44;99854.28;4990832;28;20037;-48
2022/09/29 03:01:46;;;;;;;13.75;12.27;;;;;;;6.82;85.42;99861.75;4986001;28;20115;-46
2022/09/29 03:04:11;;;;;;;13.98;12.30;;;;;;;6.77;85.26;99865.63;5002366;28;20036;-47
2022/09/29 03:06:36;;;;;;;15.48;11.50;;;;;;;6.78;85.24;99865.53;4978025;28;20416;-49
2022/09/29 03:09:02;;;;;;;13.82;12.45;;;;;;;6.76;84.90;99862.13;4989604;28;20070;-50
2022/09/29 03:11:28;;;;;;;13.43;11.38;;;;;;;6.76;85.00;99858.63;4988814;28;20038;-47
2022/09/29 03:13:55;;;;;;;12.80;11.50;;;;;;;6.72;84.76;99857.16;4973106;28;20056;-46
2022/09/29 03:16:21;;;;;;;13.77;11.70;;;;;;;6.68;85.34;99868.88;4990317;28;20026;-48
2022/09/29 03:18:46;;;;;;;13.05;11.75;;;;;;;6.63;84.82;99857.72;4955449;28;20029;-49
2022/09/29 03:21:12;;;;;;;16.70;12.07;;;;;;;6.69;84.67;99865.28;4992659;28;20041;-47
2022/09/29 03:23:38;;;;;;;13.25;11.85;;;;;;;6.63;84.72;99868.28;4990400;28;20030;-51
2022/09/29 03:26:04;;;;;;;13.43;12.02;;;;;;;6.66;84.54;99861.03;4971983;28;20026;-48
2022/09/29 03:28:29;;;;;;;14.07;11.57;;;;;;;6.60;84.14;99864.88;4972535;28;20382;-50
2022/09/29 03:30:54;;;;;;;16.38;11.82;;;;;;;6.56;85.39;99860.75;4988830;28;20074;-49
2022/09/29 03:33:22;;;;;;;14.18;11.70;;;;;;;6.52;85.12;99855.75;4988349;28;20027;-49
2022/09/29 03:35:50;;;;;;;12.50;11.30;;;;;;;6.55;85.41;99863.47;4989063;28;20105;-48
2022/09/29 03:38:15;;;;;;;16.30;12.90;;;;;;;6.45;84.87;99851.81;4990046;28;20031;-50
2022/09/29 03:40:41;;;;;;;15.10;13.20;;;;;;;6.49;86.48;99856.78;4988753;28;20034;-47
2022/09/29 03:43:07;;;;;;;14.63;12.88;;;;;;;6.49;86.55;99864.69;4990360;28;20063;-47
2022/09/29 03:45:32;;;;;;;15.00;12.63;;;;;;;6.49;86.96;99862.06;4963815;28;20473;-47
2022/09/29 03:48:00;;;;;;;12.85;11.55;;;;;;;6.48;86.16;99864.81;4970828;28;20039;-49
2022/09/29 03:50:26;;;;;;;13.23;11.88;;;;;;;6.46;85.66;99853.50;5002336;28;20049;-49
2022/09/29 03:52:51;;;;;;;14.88;11.90;;;;;;;6.43;85.77;99861.59;4972566;28;20463;-47
2022/09/29 03:55:17;;;;;;;15.43;12.07;;;;;;;6.38;85.69;99864.50;4989813;28;20084;-46
2022/09/29 03:57:43;;;;;;;15.75;11.82;;;;;;;6.27;85.58;99867.84;4988814;28;20026;-47
2022/09/29 04:00:09;;;;;;;14.10;11.90;;;;;;;6.30;85.64;99872.09;4988011;28;20117;-49
2022/09/29 04:02:35;;;;;;;15.23;12.52;;;;;;;6.30;86.10;99872.09;4972759;28;20492;-47
2022/09/29 04:05:00;;;;;;;13.80;12.50;;;;;;;6.33;86.55;99870.09;4955047;28;20076;-46
2022/09/29 04:07:25;;;;;;;16.17;12.35;;;;;;;6.33;86.39;99874.53;4971372;28;20039;-48
2022/09/29 04:09:51;;;;;;;18.90;12.77;;;;;;;6.30;86.07;99859.72;4997580;28;20057;-48
2022/09/29 04:12:16;;;;;;;12.95;11.68;;;;;;;6.32;85.96;99878.97;4963340;28;20398;-47
2022/09/29 04:14:41;;;;;;;13.57;11.85;;;;;;;6.29;85.99;99878.28;4976778;28;20088;-47
2022/09/29 04:17:09;;;;;;;13.30;12.10;;;;;;;6.29;86.06;99880.94;4967442;28;20034;-47
2022/09/29 04:19:34;;;;;;;13.70;12.38;;;;;;;6.24;85.96;99875.94;4967556;28;20087;-47
2022/09/29 04:22:00;;;;;;;14.13;12.52;;;;;;;6.28;85.60;99888.00;4969278;28;20027;-47
2022/09/29 04:24:25;;;;;;;12.63;11.32;;;;;;;6.30;85.30;99882.66;4971385;28;20035;-47
2022/09/29 04:26:51;;;;;;;13.25;11.85;;;;;;;6.28;84.89;99892.44;4969004;28;20030;-47
2022/09/29 04:29:17;;;;;;;14.20;12.35;;;;;;;6.24;85.20;99888.31;4967827;28;20072;-46
2022/09/29 04:31:44;;;;;;;13.20;11.77;;;;;;;6.26;85.51;99889.03;4969125;28;20494;-47
2022/09/29 04:34:09;;;;;;;13.25;11.90;;;;;;;6.27;84.74;99896.03;4962864;28;20492;-46
2022/09/29 04:36:35;;;;;;;13.70;12.35;;;;;;;6.19;84.44;99890.38;4967293;28;20039;-46
2022/09/29 04:39:01;;;;;;;12.82;11.55;;;;;;;6.22;84.72;99891.03;4967831;28;20035;-47
2022/09/29 04:41:26;;;;;;;13.40;12.00;;;;;;;6.13;84.76;99888.94;4999713;28;20045;-47
2022/09/29 04:43:54;;;;;;;13.50;12.27;;;;;;;6.16;84.80;99894.03;4968607;28;20031;-47
2022/09/29 04:46:23;;;;;;;12.73;11.43;;;;;;;6.09;85.17;99890.06;4969741;28;20492;-47
2022/09/29 04:48:50;;;;;;;14.25;12.63;;;;;;;6.13;84.26;99900.34;4967497;28;20042;-46
2022/09/29 04:51:16;;;;;;;14.23;12.15;;;;;;;6.12;84.94;99896.00;4948371;28;20037;-48
2022/09/29 04:53:42;;;;;;;15.25;12.18;;;;;;;5.99;85.01;99887.13;4965837;28;20031;-48
2022/09/29 04:56:10;;;;;;;13.63;12.23;;;;;;;6.05;85.09;99897.31;4970218;28;20073;-46
2022/09/29 04:58:36;;;;;;;13.27;12.07;;;;;;;6.03;85.48;99901.84;4983669;28;20113;-48
2022/09/29 05:01:14;;;;;;;14.27;12.77;;;;;;;6.00;85.53;99907.31;4968126;28;20105;-47
2022/09/29 05:03:40;;;;;;;13.52;12.23;;;;;;;5.97;84.50;99891.66;4968585;28;20023;-47
2022/09/29 05:06:09;;;;;;;14.30;12.80;;;;;;;5.98;85.60;99905.69;4980645;28;20387;-48
2022/09/29 05:08:37;;;;;;;15.82;12.93;;;;;;;5.97;85.82;99904.84;4977607;28;20053;-47
2022/09/29 05:11:07;;;;;;;15.38;13.48;;;;;;;5.98;86.90;99911.81;4988240;28;20030;-47
2022/09/29 05:13:33;;;;;;;14.35;12.85;;;;;;;6.01;86.45;99919.56;4990626;28;20454;-47
2022/09/29 05:16:00;;;;;;;17.00;13.63;;;;;;;5.99;85.95;99921.44;4992065;28;20537;-47
2022/09/29 05:18:25;;;;;;;14.85;13.27;;;;;;;5.96;86.22;99921.59;4989544;28;20032;-47
2022/09/29 05:20:52;;;;;;;16.20;13.45;;;;;;;5.94;86.63;99923.47;4979222;28;20030;-46
2022/09/29 05:23:17;;;;;;;14.52;13.02;;;;;;;5.92;86.81;99927.97;4990416;28;20023;-46
2022/09/29 05:25:43;;;;;;;16.85;13.73;;;;;;;5.88;86.80;99916.78;4991612;28;20032;-46
2022/09/29 05:28:13;;;;;;;15.82;14.13;;;;;;;5.94;86.55;99934.03;4991477;28;20031;-49
2022/09/29 05:30:41;;;;;;;15.55;13.40;;;;;;;5.96;86.45;99931.31;5002224;28;20034;-47
2022/09/29 05:33:09;;;;;;;15.40;13.80;;;;;;;5.92;86.48;99938.53;4998603;28;20026;-46
2022/09/29 05:35:35;;;;;;;15.30;13.70;;;;;;;5.91;86.15;99932.41;4991083;28;20074;-47
2022/09/29 05:38:00;;;;;;;17.45;14.90;;;;;;;5.96;85.92;99934.81;4990792;28;20072;-46
2022/09/29 05:40:25;;;;;;;15.77;14.18;;;;;;;5.90;86.35;99935.97;4969734;28;20117;-48
2022/09/29 05:42:51;;;;;;;15.25;13.65;;;;;;;5.92;86.09;99931.47;4992339;28;20030;-47
2022/09/29 05:45:17;;;;;;;16.48;13.48;;;;;;;5.84;86.33;99932.84;4987695;28;20135;-46
2022/09/29 05:47:44;;;;;;;15.55;13.70;;;;;;;5.84;86.41;99938.13;4973274;28;20027;-47
2022/09/29 05:50:13;;;;;;;15.95;14.30;;;;;;;5.88;86.47;99939.63;4990186;28;20030;-48
2022/09/29 05:52:39;;;;;;;16.55;14.68;;;;;;;5.88;86.52;99940.50;4990712;28;20054;-47
2022/09/29 05:55:08;;;;;;;19.30;15.07;;;;;;;5.85;86.67;99947.72;5004558;28;20073;-48
2022/09/29 05:57:34;;;;;;;15.63;14.03;;;;;;;5.86;86.33;99947.66;4966199;28;20034;-46
2022/09/29 06:00:00;;;;;;;19.27;14.55;;;;;;;5.88;87.14;99948.44;4988048;28;20392;-47
2022/09/29 06:02:25;;;;;;;16.17;14.48;;;;;;;5.82;86.88;99945.28;4962439;28;20035;-46
2022/09/29 06:04:51;;;;;;;19.58;14.95;;;;;;;5.86;86.73;99952.94;4974962;28;20042;-47
2022/09/29 06:07:16;;;;;;;16.25;14.57;;;;;;;5.90;87.09;99956.25;4991425;28;20117;-48
2022/09/29 06:09:41;;;;;;;18.17;14.95;;;;;;;5.91;87.06;99952.66;4978092;28;20062;-49
2022/09/29 06:12:07;;;;;;;20.60;15.73;;;;;;;5.88;87.05;99959.00;4972931;28;20122;-46
2022/09/29 06:14:35;;;;;;;16.70;15.00;;;;;;;5.87;86.78;99961.69;4982095;28;20522;-46
2022/09/29 06:17:01;;;;;;;16.70;14.85;;;;;;;5.90;87.44;99966.81;4988433;28;20031;-45
2022/09/29 06:19:26;;;;;;;18.08;15.75;;;;;;;5.87;87.48;99969.63;4952012;28;20046;-46
2022/09/29 06:21:52;;;;;;;23.75;16.08;;;;;;;5.95;87.94;99966.56;4985417;28;20036;-47
2022/09/29 06:24:18;;;;;;;17.85;16.05;;;;;;;5.92;87.88;99964.94;4991171;28;20042;-47
2022/09/29 06:26:43;;;;;;;19.90;17.10;;;;;;;5.96;88.50;99966.47;4989878;28;20066;-48
2022/09/29 06:29:14;;;;;;;20.02;17.08;;;;;;;5.98;89.05;99969.88;4972699;28;20069;-49
2022/09/29 06:31:40;;;;;;;19.88;16.27;;;;;;;5.92;88.98;99971.06;4974328;28;20030;-48
2022/09/29 06:34:08;;;;;;;21.55;16.45;;;;;;;5.99;89.22;99966.28;4990626;28;20076;-50
2022/09/29 06:39:21;;;;;;;20.50;17.48;;;;;;;6.11;89.71;99977.91;4988761;28;20046;-46
2022/09/29 06:41:56;;;;;;;20.63;17.30;;;;;;;6.10;89.80;99981.50;4954168;28;20031;-50
2022/09/29 06:44:23;;;;;;;19.00;16.60;;;;;;;6.19;89.67;99986.25;4959100;28;20037;-50
2022/09/29 06:46:50;;;;;;;18.60;16.63;;;;;;;6.26;90.09;99992.84;4964717;28;20038;-47
2022/09/29 06:49:16;;;;;;;21.48;18.42;;;;;;;6.25;90.17;99991.16;4977973;28;20062;-50
2022/09/29 06:51:42;;;;;;;20.92;18.58;;;;;;;6.33;90.53;99990.72;4989195;28;20083;-46
2022/09/29 06:54:09;;;;;;;20.45;18.27;;;;;;;6.34;90.57;99995.06;4970928;28;20088;-47
2022/09/29 06:56:43;;;;;;;23.42;18.80;;;;;;;6.40;89.97;99996.47;4987547;28;20026;-48
2022/09/29 06:59:10;;;;;;;19.95;17.88;;;;;;;6.31;90.35;99971.47;4987079;28;20025;-48
2022/09/29 07:01:36;;;;;;;21.45;19.17;;;;;;;6.47;90.82;99995.16;4971944;28;20038;-47
2022/09/29 07:04:01;;;;;;;22.40;19.48;;;;;;;6.53;90.68;100005.34;4996720;28;20508;-47
2022/09/29 07:06:30;;;;;;;24.23;18.65;;;;;;;6.52;90.68;99990.47;4988814;28;20040;-50
2022/09/29 07:08:57;;;;;;;23.10;18.15;;;;;;;6.57;90.93;99999.81;4984663;28;20054;-47
2022/09/29 07:11:23;;;;;;;23.25;17.92;;;;;;;6.64;90.68;99999.44;4972282;28;20465;-46
2022/09/29 07:13:53;;;;;;;21.30;19.05;;;;;;;6.67;90.95;100008.03;4989651;28;20036;-47
2022/09/29 07:16:19;;;;;;;26.55;20.00;;;;;;;6.65;91.36;100006.41;4973107;28;20125;-48
2022/09/29 07:18:45;;;;;;;28.40;19.65;;;;;;;6.75;91.19;100015.50;4986969;28;20035;-46
2022/09/29 07:21:16;;;;;;;20.95;17.90;;;;;;;6.75;91.26;100019.00;4974793;28;20038;-46
2022/09/29 07:23:43;;;;;;;24.50;19.40;;;;;;;6.75;91.54;100013.69;4987647;28;20063;-49
2022/09/29 07:26:09;;;;;;;23.27;19.08;;;;;;;6.84;91.40;100017.59;4988553;28;20026;-48
2022/09/29 07:28:35;;;;;;;25.40;19.63;;;;;;;6.85;91.47;100011.34;4989831;28;20045;-46
2022/09/29 07:31:08;;;;;;;20.15;17.83;;;;;;;6.94;91.46;100021.38;4971006;28;20030;-48
2022/09/29 07:33:34;;;;;;;24.77;18.15;;;;;;;7.02;91.08;100026.19;4971860;28;20105;-47
2022/09/29 07:35:59;;;;;;;25.30;19.27;;;;;;;7.09;91.12;100030.16;4988242;28;20101;-47
2022/09/29 07:38:26;;;;;;;21.58;18.52;;;;;;;7.19;91.64;100028.63;4994220;28;20030;-46
2022/09/29 07:40:52;;;;;;;25.77;18.08;;;;;;;7.21;91.36;100025.91;4986341;28;20506;-46
2022/09/29 07:43:18;;;;;;;20.00;17.90;;;;;;;7.32;90.74;100027.84;4995633;28;20491;-46
2022/09/29 07:45:55;;;;;;;25.95;18.15;;;;;;;7.45;90.62;100042.88;4977298;28;20058;-47
2022/09/29 07:48:20;;;;;;;22.77;18.08;;;;;;;7.56;91.00;100038.69;4986450;28;20014;-47
2022/09/29 07:50:46;;;;;;;21.50;18.08;;;;;;;7.65;90.76;100041.59;5000237;28;20438;-46
2022/09/29 07:53:12;;;;;;;22.80;17.85;;;;;;;7.66;89.57;100021.28;4990535;28;20031;-48
2022/09/29 07:55:38;;;;;;;21.98;17.15;;;;;;;7.82;89.48;100042.31;4989331;28;20143;-47
2022/09/29 07:58:05;;;;;;;21.10;18.02;;;;;;;7.93;89.88;100043.31;4982007;28;20068;-47
2022/09/29 08:00:31;;;;;;;20.63;16.98;;;;;;;8.00;89.11;100053.50;4987666;28;20026;-48
2022/09/29 08:03:06;;;;;;;23.23;17.83;;;;;;;8.10;88.72;100059.91;4987963;28;20066;-46
2022/09/29 08:05:32;;;;;;;23.95;16.88;;;;;;;8.11;87.92;100059.78;4983300;28;20049;-46
2022/09/29 08:08:04;;;;;;;21.42;16.48;;;;;;;8.17;88.00;100056.72;4971215;28;20026;-46
2022/09/29 08:10:31;;;;;;;22.63;17.52;;;;;;;8.16;87.27;100054.19;4989420;28;20384;-47
2022/09/29 08:12:57;;;;;;;21.80;16.70;;;;;;;8.12;86.88;100052.72;4976047;28;20121;-47
2022/09/29 08:15:23;;;;;;;22.80;16.65;;;;;;;8.19;87.34;100067.25;5009135;28;20218;-47
2022/09/29 08:17:52;;;;;;;21.92;17.23;;;;;;;8.16;87.30;100067.44;5008945;28;20423;-48
2022/09/29 08:20:18;;;;;;;21.15;16.77;;;;;;;8.23;87.75;100074.03;5008486;28;20495;-47
2022/09/29 08:22:47;;;;;;;22.25;17.23;;;;;;;8.24;86.68;100074.91;5008578;28;20032;-47
2022/09/29 08:25:15;;;;;;;22.17;16.45;;;;;;;8.40;87.15;100072.94;4989033;28;20083;-47
2022/09/29 08:27:41;;;;;;;21.25;16.42;;;;;;;8.50;86.71;100079.34;5008928;28;20018;-47
2022/09/29 08:30:09;;;;;;;21.83;16.50;;;;;;;8.48;86.82;100081.25;5009093;28;20139;-46
2022/09/29 08:32:35;;;;;;;22.58;16.65;;;;;;;8.44;86.34;100079.72;4991842;28;20090;-47
2022/09/29 08:35:00;;;;;;;21.98;16.27;;;;;;;8.46;86.32;100090.25;4982462;28;20034;-47
2022/09/29 08:37:26;;;;;;;21.45;15.90;;;;;;;8.51;86.02;100086.34;4992210;28;20034;-46
2022/09/29 08:39:52;;;;;;;22.60;16.42;;;;;;;8.61;86.66;100089.22;4990926;28;20438;-47
2022/09/29 08:42:29;;;;;;;21.58;16.42;;;;;;;8.66;86.43;100100.38;4991411;28;20030;-47
2022/09/29 08:45:04;;;;;;;20.98;16.05;;;;;;;8.81;86.17;100109.09;4979466;28;20073;-47
2022/09/29 08:47:39;;;;;;;20.73;15.43;;;;;;;8.94;86.53;100107.31;4991882;28;20481;-47
2022/09/29 08:50:30;;;;;;;22.25;16.40;;;;;;;9.06;85.60;100105.63;5003087;28;20041;-48
2022/09/29 08:53:01;;;;;;;24.33;17.52;;;;;;;9.12;85.19;100096.38;4992448;28;20465;-48
2022/09/29 08:55:41;;;;;;;21.30;15.10;;;;;;;9.27;85.13;100103.28;5009222;28;20037;-50
2022/09/29 08:58:16;;;;;;;18.15;15.25;;;;;;;9.42;84.57;100107.50;5012350;28;20439;-47
2022/09/29 09:00:46;;;;;;;19.23;15.35;;;;;;;9.54;83.05;100104.00;4994216;28;20030;-47
2022/09/29 09:03:28;;;;;;;16.50;13.88;;;;;;;9.74;84.03;100109.72;5011988;28;20029;-48
2022/09/29 09:06:06;;;;;;;20.40;15.20;;;;;;;9.84;83.92;100110.72;4994493;28;20162;-48
2022/09/29 09:08:57;;;;;;;18.73;14.07;;;;;;;9.91;82.77;100113.78;5003129;28;20054;-48
2022/09/29 09:11:34;;;;;;;18.65;14.70;;;;;;;10.08;83.92;100108.09;4961519;28;20126;-47
2022/09/29 09:14:12;;;;;;;17.13;13.32;;;;;;;10.26;82.75;100105.06;4987163;28;20397;-47
2022/09/29 09:16:43;;;;;;;18.08;12.90;;;;;;;10.40;81.67;100111.06;4969937;28;20030;-52
2022/09/29 09:19:30;;;;;;;19.27;13.35;;;;;;;10.62;81.21;100110.34;4982492;28;20035;-48
2022/09/29 09:22:24;;;;;;;17.88;13.98;;;;;;;10.74;81.87;100116.53;5003052;28;20491;-48
2022/09/29 09:25:12;;;;;;;19.90;13.85;;;;;;;10.91;81.60;100118.78;4992002;28;20374;-52
2022/09/29 09:27:42;;;;;;;16.25;12.52;;;;;;;11.01;80.07;100115.41;4991780;28;20034;-48
2022/09/29 09:30:33;;;;;;;15.73;13.05;;;;;;;11.22;79.79;100113.75;4989923;28;20076;-47
2022/09/29 09:33:16;;;;;;;15.90;12.20;;;;;;;11.50;77.39;100114.22;4991231;28;20542;-50
2022/09/29 09:35:48;;;;;;;15.80;11.25;;;;;;;11.70;77.55;100110.00;4988806;28;20030;-48
2022/09/29 09:38:35;;;;;;;12.27;9.88;;;;;;;11.88;76.42;100121.88;4986804;28;20038;-47
2022/09/29 09:41:01;;;;;;;10.63;8.50;;;;;;;12.03;74.29;100115.34;4988090;28;20030;-49
2022/09/29 09:43:41;;;;;;;13.18;9.25;;;;;;;12.24;73.93;100112.72;4990901;28;20037;-50
2022/09/29 09:46:27;;;;;;;9.98;8.20;;;;;;;12.36;72.96;100128.72;5006831;28;20030;-49
2022/09/29 09:49:30;;;;;;;10.68;7.80;;;;;;;12.63;73.31;100123.75;4990738;28;20030;-48
2022/09/29 09:52:32;;;;;;;10.27;8.40;;;;;;;12.91;73.59;100119.63;4991566;28;20569;-48
2022/09/29 09:55:03;;;;;;;10.70;8.18;;;;;;;13.03;71.42;100124.88;4991107;28;20065;-49
2022/09/29 09:57:43;;;;;;;9.70;7.60;;;;;;;13.23;69.65;100132.03;4991006;28;20101;-51
2022/09/29 10:00:24;;;;;;;8.27;7.28;;;;;;;13.28;69.22;100131.69;4973937;28;20033;-47
2022/09/29 10:02:55;;;;;;;8.75;7.82;;;;;;;13.35;67.88;100135.50;4974797;28;20053;-48
2022/09/29 10:05:25;;;;;;;7.63;6.93;;;;;;;13.49;67.90;100131.63;4990863;28;20043;-48
2022/09/29 10:07:52;;;;;;;7.63;5.93;;;;;;;13.65;65.80;100134.69;4958224;28;20026;-48
2022/09/29 10:10:27;;;;;;;7.20;5.20;;;;;;;13.89;66.20;100138.84;4991322;28;20439;-50
2022/09/29 10:13:02;;;;;;;7.85;7.10;;;;;;;14.01;66.55;100137.75;4991278;28;20027;-52
2022/09/29 10:15:39;;;;;;;9.27;7.03;;;;;;;14.03;65.23;100127.75;4968666;28;20034;-55
2022/09/29 10:18:12;;;;;;;10.20;6.75;;;;;;;14.41;65.45;100127.00;4991151;28;20103;-48
2022/09/29 10:20:40;;;;;;;7.88;5.97;;;;;;;14.66;66.04;100130.97;4989980;28;20022;-48
2022/09/29 10:23:25;;;;;;;5.53;5.03;;;;;;;14.90;67.50;100127.03;4974119;28;20027;-49
2022/09/29 10:25:57;;;;;;;4.53;3.50;;;;;;;14.99;61.65;100135.03;4992036;28;20092;-49
2022/09/29 10:28:35;;;;;;;2.88;2.58;;;;;;;15.15;62.62;100139.81;5001713;28;20025;-48
2022/09/29 10:31:00;;;;;;;5.18;4.43;;;;;;;15.33;60.92;100150.66;4993832;28;20042;-47
2022/09/29 10:33:28;;;;;;;5.07;3.25;;;;;;;15.38;60.64;100150.19;4986085;28;20547;-48
2022/09/29 10:36:07;;;;;;;3.92;3.30;;;;;;;15.58;60.51;100149.16;4970416;28;20510;-51
2022/09/29 10:38:34;;;;;;;4.28;3.63;;;;;;;15.86;60.10;100144.72;4971557;28;20029;-49
2022/09/29 10:41:07;;;;;;;5.65;4.72;;;;;;;15.93;59.51;100152.16;4971492;28;20401;-49
2022/09/29 10:43:37;;;;;;;4.68;3.92;;;;;;;16.31;57.60;100146.56;4987450;28;20035;-50
2022/09/29 10:46:04;;;;;;;4.60;4.18;;;;;;;16.49;56.97;100143.91;4971254;28;20054;-52
2022/09/29 10:48:32;;;;;;;4.35;3.95;;;;;;;16.66;55.95;100147.59;4971104;28;20031;-50
2022/09/29 10:51:02;;;;;;;5.22;3.17;;;;;;;16.75;54.44;100149.34;4954394;28;20519;-49
2022/09/29 10:53:28;;;;;;;;;;;;;;;17.27;59.01;100151.34;4992549;28;20034;-50
2022/09/29 10:55:55;;;;;;;6.20;3.38;;;;;;;17.24;53.32;100146.28;5010045;28;20337;-48
2022/09/29 10:58:29;;;;;;;4.60;3.13;;;;;;;17.85;53.94;100155.22;5010327;28;20101;-50
2022/09/29 11:01:19;;;;;;;5.18;3.15;;;;;;;18.30;53.76;100160.28;5009805;28;20029;-49
2022/09/29 11:03:47;;;;;;;2.40;2.20;;;;;;;18.52;50.34;100160.66;5000143;28;20038;-51
2022/09/29 11:06:14;;;;;;;3.58;2.60;;;;;;;18.95;49.84;100161.44;4990749;28;20038;-49
2022/09/29 11:09:00;;;;;;;4.93;3.20;;;;;;;19.57;52.20;100160.88;4990128;28;20054;-49
2022/09/29 11:11:51;;;;;;;3.35;2.67;;;;;;;20.04;47.87;100165.47;4990596;28;20068;-49
2022/09/29 11:14:35;;;;;;;3.42;2.35;;;;;;;20.63;48.40;100164.00;5000485;28;20054;-50
2022/09/29 11:17:18;;;;;;;2.92;2.63;;;;;;;20.87;42.53;100162.16;5009720;28;20030;-48
2022/09/29 11:19:44;;;;;;;4.93;2.85;;;;;;;21.02;43.09;100164.91;4991594;28;20029;-51
2022/09/29 11:22:32;;;;;;;4.22;2.50;;;;;;;21.53;44.36;100163.28;5009922;28;20411;-51
2022/09/29 11:25:00;;;;;;;3.83;2.35;;;;;;;22.22;42.23;100170.31;4985280;28;20054;-50
2022/09/29 11:27:47;;;;;;;4.78;2.97;;;;;;;22.31;38.58;100171.03;4990137;28;20026;-52
2022/09/29 11:30:19;;;;;;;5.75;2.65;;;;;;;22.23;40.41;100171.97;4989864;28;20424;-51
2022/09/29 11:32:48;;;;;;;3.03;2.08;;;;;;;22.67;39.08;100162.88;4989751;28;20080;-51
2022/09/29 11:35:35;;;;;;;2.78;2.20;;;;;;;23.10;40.32;100162.94;4989258;28;20035;-48
2022/09/29 11:38:42;;;;;;;2.70;1.95;;;;;;;23.89;36.70;100168.13;4970621;28;20023;-47
2022/09/29 11:41:19;;;;;;;3.20;2.10;;;;;;;23.91;36.81;100165.19;4911027;28;20518;-49
2022/09/29 11:44:13;;;;;;;3.25;2.53;;;;;;;23.95;36.59;100166.47;4894449;28;20031;-50
2022/09/29 11:47:04;;;;;;;4.10;2.10;;;;;;;24.10;36.83;100161.75;4981898;28;20087;-50